createdAt,value
2023-03-05T00:00:09.751Z,9.54
2023-03-05T00:02:13.354Z,9.52
2023-03-05T00:04:16.840Z,9.51
2023-03-05T00:06:21.423Z,9.53
2023-03-05T00:08:24.227Z,9.50
2023-03-05T00:10:27.057Z,9.51
2023-03-05T00:12:38.677Z,9.51
2023-03-05T00:14:41.886Z,9.50
2023-03-05T00:16:44.665Z,9.45
2023-03-05T00:18:48.059Z,9.43
2023-03-05T00:20:51.045Z,9.43
2023-03-05T00:22:55.245Z,9.41
2023-03-05T00:24:58.258Z,9.37
2023-03-05T00:27:01.078Z,9.41
2023-03-05T00:29:03.991Z,9.41
2023-03-05T00:31:06.968Z,9.38
2023-03-05T00:33:12.783Z,9.34
2023-03-05T00:35:15.602Z,9.33
2023-03-05T00:37:18.694Z,9.33
2023-03-05T00:39:23.433Z,9.36
2023-03-05T00:41:26.567Z,9.34
2023-03-05T00:43:29.485Z,9.29
2023-03-05T00:45:32.887Z,9.26
2023-03-05T00:47:36.460Z,9.24
2023-03-05T00:49:39.450Z,9.25
2023-03-05T00:51:42.436Z,9.22
2023-03-05T00:53:45.423Z,9.26
2023-03-05T00:55:49.682Z,9.26
2023-03-05T00:57:52.532Z,9.28
2023-03-05T00:59:55.399Z,9.30
2023-03-05T01:01:58.456Z,9.30
2023-03-05T01:04:01.483Z,9.26
2023-03-05T01:06:07.922Z,9.22
2023-03-05T01:08:10.809Z,9.21
2023-03-05T01:10:14.148Z,9.19
2023-03-05T01:12:18.344Z,9.18
2023-03-05T01:14:21.806Z,9.17
2023-03-05T01:16:24.831Z,9.18
2023-03-05T01:18:27.691Z,9.20
2023-03-05T01:20:30.728Z,9.17
2023-03-05T01:22:33.510Z,9.17
2023-03-05T01:24:36.286Z,9.17
2023-03-05T01:26:39.296Z,9.16
2023-03-05T01:28:43.446Z,9.14
2023-03-05T01:30:46.281Z,9.11
2023-03-05T01:32:49.123Z,9.10
2023-03-05T01:34:51.900Z,9.10
2023-03-05T01:36:54.726Z,9.07
2023-03-05T01:38:57.866Z,9.05
2023-03-05T01:41:00.645Z,9.02
2023-03-05T01:43:22.674Z,8.93
2023-03-05T01:45:27.285Z,8.92
2023-03-05T01:47:30.803Z,8.90
2023-03-05T01:49:37.386Z,8.84
2023-03-05T01:51:45.890Z,8.80
2023-03-05T01:53:49.038Z,8.80
2023-03-05T01:55:51.830Z,8.84
2023-03-05T01:57:56.941Z,8.82
2023-03-05T02:00:03.929Z,8.72
2023-03-05T02:02:08.987Z,8.71
2023-03-05T02:04:15.712Z,8.74
2023-03-05T02:06:18.607Z,8.74
2023-03-05T02:08:23.423Z,8.68
2023-03-05T02:10:28.882Z,8.65
2023-03-05T02:12:31.994Z,8.65
2023-03-05T02:14:35.088Z,8.60
2023-03-05T02:16:39.248Z,8.54
2023-03-05T02:18:43.493Z,8.53
2023-03-05T02:20:48.255Z,8.50
2023-03-05T02:22:52.565Z,8.48
2023-03-05T02:24:55.463Z,8.48
2023-03-05T02:26:58.945Z,8.47
2023-03-05T02:29:04.194Z,8.43
2023-03-05T02:31:10.998Z,8.40
2023-03-05T02:33:15.861Z,8.37
2023-03-05T02:35:18.978Z,8.41
2023-03-05T02:37:21.791Z,8.43
2023-03-05T02:39:26.096Z,8.38
2023-03-05T02:41:29.107Z,8.37
2023-03-05T02:43:32.207Z,8.38
2023-03-05T02:45:35.056Z,8.40
2023-03-05T02:47:38.254Z,8.39
2023-03-05T02:49:41.168Z,8.40
2023-03-05T02:51:44.122Z,8.38
2023-03-05T02:53:47.017Z,8.38
2023-03-05T02:55:51.562Z,8.37
2023-03-05T02:57:54.524Z,8.38
2023-03-05T02:59:57.339Z,8.37
2023-03-05T03:02:00.271Z,8.33
2023-03-05T03:04:03.282Z,8.34
2023-03-05T03:06:07.052Z,8.39
2023-03-05T03:08:10.385Z,8.37
2023-03-05T03:10:13.758Z,8.39
2023-03-05T03:12:18.066Z,8.40
2023-03-05T03:14:21.305Z,8.42
2023-03-05T03:16:24.284Z,8.48
2023-03-05T03:18:26.204Z,8.42
2023-03-05T03:20:29.028Z,8.39
2023-03-05T03:22:31.925Z,8.42
2023-03-05T03:24:36.570Z,8.42
2023-03-05T03:26:39.489Z,8.43
2023-03-05T03:28:43.846Z,8.42
2023-03-05T03:30:46.681Z,8.39
2023-03-05T03:32:49.525Z,8.36
2023-03-05T03:34:52.116Z,8.39
2023-03-05T03:36:55.391Z,8.42
2023-03-05T03:38:58.295Z,8.40
2023-03-05T03:41:01.127Z,8.40
2023-03-05T03:43:04.142Z,8.39
2023-03-05T03:45:09.692Z,8.39
2023-03-05T03:47:12.470Z,8.37
2023-03-05T03:49:17.894Z,8.37
2023-03-05T03:51:20.997Z,8.38
2023-03-05T03:53:23.773Z,8.32
2023-03-05T03:55:26.704Z,8.28
2023-03-05T03:57:30.733Z,8.26
2023-03-05T03:59:33.546Z,8.20
2023-03-05T04:01:38.060Z,8.15
2023-03-05T04:03:40.943Z,8.10
2023-03-05T04:05:43.825Z,8.09
2023-03-05T04:07:46.702Z,8.14
2023-03-05T04:09:49.486Z,8.14
2023-03-05T04:11:52.286Z,8.07
2023-03-05T04:13:55.144Z,8.01
2023-03-05T04:15:58.300Z,7.99
2023-03-05T04:18:02.649Z,7.95
2023-03-05T04:20:07.266Z,7.93
2023-03-05T04:22:12.065Z,7.95
2023-03-05T04:24:15.236Z,7.93
2023-03-05T04:26:18.154Z,7.90
2023-03-05T04:28:20.939Z,7.88
2023-03-05T04:30:23.713Z,7.87
2023-03-05T04:32:28.512Z,7.86
2023-03-05T04:34:32.871Z,7.87
2023-03-05T04:36:37.007Z,7.87
2023-03-05T04:38:39.808Z,7.87
2023-03-05T04:40:42.596Z,7.85
2023-03-05T04:42:45.892Z,7.81
2023-03-05T04:44:48.964Z,7.79
2023-03-05T04:46:52.061Z,7.77
2023-03-05T04:48:55.121Z,7.76
2023-03-05T04:50:59.240Z,7.81
2023-03-05T04:53:02.190Z,7.86
2023-03-05T04:55:05.197Z,7.88
2023-03-05T04:57:09.139Z,7.93
2023-03-05T04:59:12.090Z,7.97
2023-03-05T05:01:14.940Z,7.96
2023-03-05T05:03:17.745Z,7.92
2023-03-05T05:05:22.408Z,7.90
2023-03-05T05:07:26.625Z,7.88
2023-03-05T05:09:29.433Z,7.87
2023-03-05T05:11:32.293Z,7.85
2023-03-05T05:13:36.062Z,7.82
2023-03-05T05:15:41.353Z,7.78
2023-03-05T05:17:44.299Z,7.78
2023-03-05T05:19:47.202Z,7.76
2023-03-05T05:21:50.186Z,7.75
2023-03-05T05:23:54.529Z,7.73
2023-03-05T05:25:58.667Z,7.72
2023-03-05T05:28:01.514Z,7.73
2023-03-05T05:30:06.072Z,7.76
2023-03-05T05:32:09.094Z,7.74
2023-03-05T05:34:12.161Z,7.73
2023-03-05T05:36:19.048Z,7.73
2023-03-05T05:38:22.778Z,7.73
2023-03-05T05:40:26.972Z,7.71
2023-03-05T05:42:30.142Z,7.69
2023-03-05T05:44:34.863Z,7.65
2023-03-05T05:46:38.143Z,7.63
2023-03-05T05:48:41.510Z,7.59
2023-03-05T05:50:44.324Z,7.55
2023-03-05T05:52:47.131Z,7.55
2023-03-05T05:54:50.227Z,7.56
2023-03-05T05:56:54.425Z,7.58
2023-03-05T05:58:57.275Z,7.58
2023-03-05T06:01:00.599Z,7.62
2023-03-05T06:03:04.124Z,7.63
2023-03-05T06:05:08.386Z,7.64
2023-03-05T06:07:11.277Z,7.62
2023-03-05T06:09:14.676Z,7.61
2023-03-05T06:11:19.406Z,7.61
2023-03-05T06:13:23.803Z,7.59
2023-03-05T06:15:26.624Z,7.61
2023-03-05T06:17:31.091Z,7.62
2023-03-05T06:19:34.113Z,7.61
2023-03-05T06:21:37.138Z,7.61
2023-03-05T06:23:40.297Z,7.64
2023-03-05T06:25:43.210Z,7.67
2023-03-05T06:27:46.060Z,7.64
2023-03-05T06:29:53.554Z,7.64
2023-03-05T06:31:56.419Z,7.67
2023-03-05T06:34:02.375Z,7.68
2023-03-05T06:36:06.485Z,7.66
2023-03-05T06:38:10.296Z,7.67
2023-03-05T06:40:14.352Z,7.69
2023-03-05T06:42:19.237Z,7.72
2023-03-05T06:44:22.034Z,7.76
2023-03-05T06:46:28.763Z,7.77
2023-03-05T06:48:31.626Z,7.79
2023-03-05T06:50:35.789Z,7.79
2023-03-05T06:52:40.960Z,7.81
2023-03-05T06:54:43.754Z,7.85
2023-03-05T06:56:48.143Z,7.89
2023-03-05T06:58:53.142Z,7.93
2023-03-05T07:00:55.973Z,7.99
2023-03-05T07:03:00.276Z,8.01
2023-03-05T07:05:03.273Z,8.06
2023-03-05T07:07:06.193Z,8.09
2023-03-05T07:09:12.450Z,8.13
2023-03-05T07:11:17.222Z,8.16
2023-03-05T07:13:20.002Z,8.19
2023-03-05T07:15:22.879Z,8.23
2023-03-05T07:17:25.780Z,8.22
2023-03-05T07:19:30.088Z,8.20
2023-03-05T07:21:36.049Z,8.17
2023-03-05T07:23:40.366Z,8.26
2023-03-05T07:25:43.262Z,8.24
2023-03-05T07:27:45.980Z,8.18
2023-03-05T07:29:48.789Z,8.19
2023-03-05T07:31:51.663Z,8.25
2023-03-05T07:33:54.441Z,8.29
2023-03-05T07:35:58.797Z,8.30
2023-03-05T07:38:01.684Z,8.35
2023-03-05T07:40:05.930Z,8.38
2023-03-05T07:42:08.933Z,8.38
2023-03-05T07:44:11.711Z,8.37
2023-03-05T07:46:17.507Z,8.38
2023-03-05T07:48:21.598Z,8.37
2023-03-05T07:50:24.962Z,8.38
2023-03-05T07:52:29.066Z,8.46
2023-03-05T07:54:31.827Z,8.50
2023-03-05T07:56:36.450Z,8.53
2023-03-05T07:58:39.257Z,8.58
2023-03-05T08:00:42.417Z,8.61
2023-03-05T08:02:46.070Z,8.67
2023-03-05T08:04:49.033Z,8.68
2023-03-05T08:06:52.180Z,8.68
2023-03-05T08:08:56.627Z,8.71
2023-03-05T08:11:04.577Z,8.69
2023-03-05T08:13:07.938Z,8.70
2023-03-05T08:15:11.723Z,8.68
2023-03-05T08:17:14.422Z,8.68
2023-03-05T08:19:17.245Z,8.69
2023-03-05T08:21:22.102Z,8.70
2023-03-05T08:23:24.849Z,8.71
2023-03-05T08:25:29.482Z,8.71
2023-03-05T08:27:32.418Z,8.71
2023-03-05T08:29:35.401Z,8.71
2023-03-05T08:31:38.769Z,8.71
2023-03-05T08:33:41.716Z,8.70
2023-03-05T08:35:44.606Z,8.78
2023-03-05T08:37:47.546Z,8.82
2023-03-05T08:39:50.457Z,8.91
2023-03-05T08:41:54.792Z,8.94
2023-03-05T08:43:57.780Z,8.89
2023-03-05T08:46:01.450Z,8.89
2023-03-05T08:48:04.330Z,8.88
2023-03-05T08:50:08.009Z,8.92
2023-03-05T08:52:11.040Z,8.90
2023-03-05T08:54:13.972Z,8.90
2023-03-05T08:56:16.926Z,8.93
2023-03-05T08:58:21.092Z,8.97
2023-03-05T09:00:24.415Z,9.02
2023-03-05T09:02:27.265Z,9.03
2023-03-05T09:04:30.073Z,9.07
2023-03-05T09:06:34.383Z,9.04
2023-03-05T09:08:38.013Z,9.04
2023-03-05T09:10:42.448Z,9.09
2023-03-05T09:12:45.437Z,9.13
2023-03-05T09:14:49.782Z,9.18
2023-03-05T09:16:52.580Z,9.17
2023-03-05T09:18:55.531Z,9.15
2023-03-05T09:20:58.804Z,9.15
2023-03-05T09:23:01.606Z,9.16
2023-03-05T09:25:04.538Z,9.16
2023-03-05T09:27:07.299Z,9.18
2023-03-05T09:29:10.791Z,9.20
2023-03-05T09:31:15.182Z,9.22
2023-03-05T09:33:17.974Z,9.28
2023-03-05T09:35:20.799Z,9.30
2023-03-05T09:37:23.741Z,9.28
2023-03-05T09:39:26.945Z,9.27
2023-03-05T09:41:37.220Z,9.30
2023-03-05T09:43:50.415Z,9.33
2023-03-05T09:46:05.513Z,9.34
2023-03-05T09:48:18.122Z,9.40
2023-03-05T09:50:36.204Z,9.42
2023-03-05T09:52:44.910Z,9.46
2023-03-05T09:54:53.593Z,9.50
2023-03-05T09:56:59.417Z,9.54
2023-03-05T09:59:06.608Z,9.54
2023-03-05T10:01:12.458Z,9.58
2023-03-05T10:03:22.595Z,9.60
2023-03-05T10:05:33.778Z,9.66
2023-03-05T10:07:41.176Z,9.67
2023-03-05T10:09:49.879Z,9.67
2023-03-05T10:11:58.048Z,9.72
2023-03-05T10:14:00.857Z,9.78
2023-03-05T10:16:19.187Z,9.77
2023-03-05T10:18:34.069Z,9.78
2023-03-05T10:20:48.986Z,9.83
2023-03-05T10:23:16.589Z,9.93
2023-03-05T10:25:25.015Z,9.95
2023-03-05T10:27:41.331Z,10.02
2023-03-05T10:30:02.515Z,10.00
2023-03-05T10:32:17.127Z,10.03
2023-03-05T10:34:51.604Z,10.06
2023-03-05T10:37:13.369Z,10.08
2023-03-05T10:39:37.649Z,10.04
2023-03-05T10:41:49.301Z,10.09
2023-03-05T10:43:59.515Z,10.04
2023-03-05T10:46:04.533Z,10.07
2023-03-05T10:48:16.030Z,10.09
2023-03-05T10:50:23.626Z,10.09
2023-03-05T10:52:32.628Z,10.09
2023-03-05T10:54:36.053Z,10.08
2023-03-05T10:56:39.085Z,10.04
2023-03-05T10:58:42.106Z,10.01
2023-03-05T11:00:59.708Z,9.96
2023-03-05T11:03:05.883Z,9.88
2023-03-05T11:05:45.456Z,9.74
2023-03-05T11:07:49.611Z,9.63
2023-03-05T11:10:05.044Z,9.62
2023-03-05T11:12:16.928Z,9.66
2023-03-05T11:14:31.322Z,9.70
2023-03-05T11:16:36.457Z,9.72
2023-03-05T11:18:39.226Z,9.72
2023-03-05T11:20:42.322Z,9.65
2023-03-05T11:23:05.329Z,9.62
2023-03-05T11:25:18.714Z,9.67
2023-03-05T11:27:32.638Z,9.70
2023-03-05T11:29:36.139Z,9.63
2023-03-05T11:31:38.925Z,9.62
2023-03-05T11:33:56.364Z,9.60
2023-03-05T11:36:24.374Z,9.57
2023-03-05T11:38:29.505Z,9.58
2023-03-05T11:40:35.600Z,9.60
2023-03-05T11:42:41.276Z,9.60
2023-03-05T11:44:49.142Z,9.55
2023-03-05T11:46:55.533Z,9.55
2023-03-05T11:48:59.769Z,9.56
2023-03-05T11:51:08.644Z,9.55
2023-03-05T11:53:16.264Z,9.54
2023-03-05T11:55:22.619Z,9.55
2023-03-05T11:57:26.876Z,9.59
2023-03-05T11:59:34.768Z,9.61
2023-03-05T12:01:43.658Z,9.63
2023-03-05T12:03:46.681Z,9.59
2023-03-05T12:05:54.104Z,9.55
2023-03-05T12:08:02.160Z,9.51
2023-03-05T12:10:06.140Z,9.53
2023-03-05T12:12:26.206Z,9.55
2023-03-05T12:14:37.546Z,9.55
2023-03-05T12:16:43.185Z,9.59
2023-03-05T12:18:53.097Z,9.60
2023-03-05T12:21:07.060Z,9.64
2023-03-05T12:23:14.652Z,9.65
2023-03-05T12:25:29.562Z,9.66
2023-03-05T12:27:40.018Z,9.65
2023-03-05T12:29:46.121Z,9.65
2023-03-05T12:31:49.190Z,9.66
2023-03-05T12:33:52.340Z,9.68
2023-03-05T12:35:55.181Z,9.71
2023-03-05T12:38:17.210Z,9.75
2023-03-05T12:40:28.549Z,9.74
2023-03-05T12:42:54.726Z,9.73
2023-03-05T12:45:39.617Z,9.74
2023-03-05T12:47:43.331Z,9.72
2023-03-05T12:49:48.563Z,9.69
2023-03-05T12:51:53.568Z,9.72
2023-03-05T12:53:56.951Z,9.74
2023-03-05T12:56:03.897Z,9.70
2023-03-05T12:58:14.400Z,9.68
2023-03-05T13:00:22.689Z,9.70
2023-03-05T13:02:32.750Z,9.75
2023-03-05T13:04:45.507Z,9.74
2023-03-05T13:06:58.364Z,9.71
2023-03-05T13:09:03.357Z,9.74
2023-03-05T13:11:09.533Z,9.77
2023-03-05T13:13:16.572Z,9.79
2023-03-05T13:15:19.398Z,9.83
2023-03-05T13:17:34.756Z,9.88
2023-03-05T13:19:37.676Z,9.91
2023-03-05T13:21:40.529Z,9.90
2023-03-05T13:23:57.743Z,9.90
2023-03-05T13:26:03.061Z,9.90
2023-03-05T13:28:11.010Z,9.90
2023-03-05T13:30:34.682Z,9.88
2023-03-05T13:32:37.807Z,9.90
2023-03-05T13:34:48.134Z,9.94
2023-03-05T13:36:57.215Z,9.90
2023-03-05T13:39:00.510Z,9.88
2023-03-05T13:41:06.154Z,9.92
2023-03-05T13:43:13.636Z,9.89
2023-03-05T13:45:25.543Z,9.88
2023-03-05T13:47:32.205Z,9.88
2023-03-05T13:49:35.333Z,9.91
2023-03-05T13:51:46.592Z,9.91
2023-03-05T13:53:50.499Z,9.92
2023-03-05T13:55:56.347Z,9.94
2023-03-05T13:57:59.111Z,9.96
2023-03-05T14:00:03.387Z,9.98
2023-03-05T14:02:18.395Z,10.00
2023-03-05T14:04:25.335Z,10.03
2023-03-05T14:06:30.782Z,10.03
2023-03-05T14:08:34.243Z,10.06
2023-03-05T14:10:39.009Z,10.05
2023-03-05T14:12:43.595Z,10.03
2023-03-05T14:14:46.959Z,10.05
2023-03-05T14:16:50.120Z,10.10
2023-03-05T14:18:57.820Z,10.14
2023-03-05T14:21:07.598Z,10.20
2023-03-05T14:23:27.319Z,10.19
2023-03-05T14:25:34.915Z,10.16
2023-03-05T14:27:38.054Z,10.19
2023-03-05T14:29:46.371Z,10.18
2023-03-05T14:31:52.729Z,10.21
2023-03-05T14:34:01.926Z,10.26
2023-03-05T14:36:06.789Z,10.23
2023-03-05T14:38:24.217Z,10.19
2023-03-05T14:40:32.136Z,10.22
2023-03-05T14:42:38.720Z,10.26
2023-03-05T14:44:43.502Z,10.27
2023-03-05T14:46:50.624Z,10.23
2023-03-05T14:48:54.282Z,10.28
2023-03-05T14:50:58.189Z,10.32
2023-03-05T14:53:04.935Z,10.35
2023-03-05T14:55:08.380Z,10.38
2023-03-05T14:57:17.590Z,10.39
2023-03-05T14:59:22.098Z,10.42
2023-03-05T15:01:25.394Z,10.44
2023-03-05T15:03:28.526Z,10.46
2023-03-05T15:05:31.737Z,10.45
2023-03-05T15:07:34.887Z,10.43
2023-03-05T15:09:39.069Z,10.43
2023-03-05T15:11:41.873Z,10.43
2023-03-05T15:13:44.817Z,10.46
2023-03-05T15:15:53.494Z,10.47
2023-03-05T15:17:57.435Z,10.50
2023-03-05T15:20:00.674Z,10.51
2023-03-05T15:22:03.510Z,10.52
2023-03-05T15:24:06.840Z,10.53
2023-03-05T15:26:15.268Z,10.55
2023-03-05T15:28:18.349Z,10.56
2023-03-05T15:30:24.224Z,10.56
2023-03-05T15:32:28.883Z,10.59
2023-03-05T15:34:33.637Z,10.59
2023-03-05T15:36:36.413Z,10.62
2023-03-05T15:38:41.516Z,10.63
2023-03-05T15:40:45.929Z,10.63
2023-03-05T15:42:50.422Z,10.60
2023-03-05T15:44:53.166Z,10.59
2023-03-05T15:46:56.789Z,10.60
2023-03-05T15:48:59.982Z,10.63
2023-03-05T15:51:02.921Z,10.62
2023-03-05T15:53:05.665Z,10.61
2023-03-05T15:55:09.805Z,10.60
2023-03-05T15:57:13.880Z,10.59
2023-03-05T15:59:18.100Z,10.61
2023-03-05T16:01:22.299Z,10.65
2023-03-05T16:03:25.189Z,10.66
2023-03-05T16:05:28.019Z,10.65
2023-03-05T16:07:32.926Z,10.65
2023-03-05T16:09:39.652Z,10.66
2023-03-05T16:11:47.779Z,10.68
2023-03-05T16:13:51.461Z,10.68
2023-03-05T16:15:56.578Z,10.68
2023-03-05T16:18:01.859Z,10.67
2023-03-05T16:20:06.784Z,10.68
2023-03-05T16:22:09.830Z,10.67
2023-03-05T16:24:13.252Z,10.67
2023-03-05T16:26:16.216Z,10.62
2023-03-05T16:28:19.235Z,10.62
2023-03-05T16:30:22.472Z,10.65
2023-03-05T16:32:27.011Z,10.65
2023-03-05T16:34:29.812Z,10.63
2023-03-05T16:36:35.347Z,10.61
2023-03-05T16:38:38.194Z,10.60
2023-03-05T16:41:05.856Z,10.60
2023-03-05T16:43:03.692Z,10.60
2023-03-05T16:45:08.109Z,10.59
2023-03-05T16:47:12.562Z,10.58
2023-03-05T16:49:17.766Z,10.56
2023-03-05T16:51:21.189Z,10.55
2023-03-05T16:53:23.979Z,10.54
2023-03-05T16:55:26.747Z,10.52
2023-03-05T16:57:29.827Z,10.45
2023-03-05T16:59:32.580Z,10.46
2023-03-05T17:01:35.389Z,10.46
2023-03-05T17:03:41.272Z,10.43
2023-03-05T17:05:45.413Z,10.42
2023-03-05T17:07:48.327Z,10.43
2023-03-05T17:09:52.767Z,10.42
2023-03-05T17:11:55.992Z,10.40
2023-03-05T17:13:58.833Z,10.39
2023-03-05T17:16:01.814Z,10.37
2023-03-05T17:18:05.519Z,10.35
2023-03-05T17:20:10.159Z,10.34
2023-03-05T17:22:16.030Z,10.36
2023-03-05T17:24:21.554Z,10.35
2023-03-05T17:26:25.948Z,10.34
2023-03-05T17:28:28.861Z,10.31
2023-03-05T17:30:33.310Z,10.26
2023-03-05T17:32:36.354Z,10.23
2023-03-05T17:34:39.866Z,10.21
2023-03-05T17:36:42.686Z,10.21
2023-03-05T17:38:53.170Z,10.21
2023-03-05T17:40:56.440Z,10.14
2023-03-05T17:42:59.832Z,10.19
2023-03-05T17:45:04.515Z,10.17
2023-03-05T17:47:07.368Z,10.12
2023-03-05T17:49:10.107Z,10.08
2023-03-05T17:51:14.775Z,10.07
2023-03-05T17:53:17.676Z,10.08
2023-03-05T17:55:24.586Z,10.07
2023-03-05T17:57:27.808Z,10.06
2023-03-05T17:59:30.589Z,10.01
2023-03-05T18:01:34.832Z,10.01
2023-03-05T18:03:38.502Z,9.98
2023-03-05T18:05:41.918Z,9.99
2023-03-05T18:07:44.837Z,9.95
2023-03-05T18:09:47.685Z,9.90
2023-03-05T18:11:52.956Z,9.88
2023-03-05T18:13:57.923Z,9.85
2023-03-05T18:16:01.624Z,9.86
2023-03-05T18:18:04.709Z,9.86
2023-03-05T18:20:09.469Z,9.88
2023-03-05T18:22:12.180Z,9.86
2023-03-05T18:24:14.963Z,9.85
2023-03-05T18:26:18.572Z,9.80
2023-03-05T18:28:22.843Z,9.75
2023-03-05T18:30:25.918Z,9.75
2023-03-05T18:32:29.596Z,9.76
2023-03-05T18:34:32.533Z,9.75
2023-03-05T18:36:35.902Z,9.71
2023-03-05T18:38:39.276Z,9.70
2023-03-05T18:40:43.751Z,9.70
2023-03-05T18:42:46.603Z,9.67
2023-03-05T18:44:50.722Z,9.67
2023-03-05T18:46:53.741Z,9.67
2023-03-05T18:48:56.585Z,9.66
2023-03-05T18:51:01.781Z,9.64
2023-03-05T18:53:05.004Z,9.65
2023-03-05T18:55:15.261Z,9.67
2023-03-05T18:57:18.479Z,9.66
2023-03-05T18:59:21.777Z,9.64
2023-03-05T19:01:26.176Z,9.64
2023-03-05T19:03:29.132Z,9.64
2023-03-05T19:05:32.176Z,9.63
2023-03-05T19:07:35.410Z,9.64
2023-03-05T19:09:52.126Z,9.65
2023-03-05T19:11:54.895Z,9.62
2023-03-05T19:13:58.517Z,9.62
2023-03-05T19:16:02.411Z,9.67
2023-03-05T19:18:06.845Z,9.67
2023-03-05T19:20:13.381Z,9.67
2023-03-05T19:22:16.579Z,9.66
2023-03-05T19:24:20.158Z,9.66
2023-03-05T19:26:23.125Z,9.64
2023-03-05T19:28:27.673Z,9.64
2023-03-05T19:30:30.465Z,9.61
2023-03-05T19:32:33.539Z,9.63
2023-03-05T19:34:38.095Z,9.62
2023-03-05T19:36:40.862Z,9.62
2023-03-05T19:38:43.996Z,9.61
2023-03-05T19:40:47.747Z,9.61
2023-03-05T19:42:50.744Z,9.63
2023-03-05T19:44:53.590Z,9.62
2023-03-05T19:46:56.352Z,9.61
2023-03-05T19:48:59.848Z,9.60
2023-03-05T19:51:04.453Z,9.60
2023-03-05T19:53:07.387Z,9.59
2023-03-05T19:55:11.377Z,9.61
2023-03-05T19:57:15.006Z,9.58
2023-03-05T19:59:21.011Z,9.59
2023-03-05T20:01:26.258Z,9.58
2023-03-05T20:03:29.130Z,9.59
2023-03-05T20:05:31.905Z,9.59
2023-03-05T20:07:36.177Z,9.55
2023-03-05T20:09:39.176Z,9.55
2023-03-05T20:11:42.353Z,9.55
2023-03-05T20:13:45.353Z,9.55
2023-03-05T20:15:48.375Z,9.54
2023-03-05T20:17:53.698Z,9.54
2023-03-05T20:19:58.989Z,9.52
2023-03-05T20:22:02.271Z,9.50
2023-03-05T20:24:09.998Z,9.49
2023-03-05T20:26:13.024Z,9.49
2023-03-05T20:28:16.555Z,9.46
2023-03-05T20:30:19.831Z,9.40
2023-03-05T20:32:24.107Z,9.41
2023-03-05T20:34:27.173Z,9.39
2023-03-05T20:36:30.223Z,9.36
2023-03-05T20:38:33.380Z,9.38
2023-03-05T20:40:37.873Z,9.40
2023-03-05T20:42:40.707Z,9.37
2023-03-05T20:44:44.890Z,9.36
2023-03-05T20:46:59.553Z,9.37
2023-03-05T20:49:04.194Z,9.34
2023-03-05T20:51:14.823Z,9.34
2023-03-05T20:53:18.100Z,9.31
2023-03-05T20:55:21.186Z,9.32
2023-03-05T20:57:26.301Z,9.29
2023-03-05T20:59:29.127Z,9.29
2023-03-05T21:01:33.850Z,9.26
2023-03-05T21:03:38.748Z,9.25
2023-03-05T21:05:41.599Z,9.24
2023-03-05T21:07:45.450Z,9.23
2023-03-05T21:09:48.453Z,9.24
2023-03-05T21:11:51.607Z,9.27
2023-03-05T21:13:56.292Z,9.25
2023-03-05T21:15:59.056Z,9.25
2023-03-05T21:18:02.045Z,9.28
2023-03-05T21:20:05.917Z,9.28
2023-03-05T21:22:08.916Z,9.27
2023-03-05T21:24:11.890Z,9.26
2023-03-05T21:26:14.739Z,9.27
2023-03-05T21:28:18.636Z,9.30
2023-03-05T21:30:24.001Z,9.31
2023-03-05T21:32:27.601Z,9.33
2023-03-05T21:34:30.742Z,9.33
2023-03-05T21:36:33.838Z,9.34
2023-03-05T21:38:37.268Z,9.32
2023-03-05T21:40:43.555Z,9.33
2023-03-05T21:42:47.999Z,9.34
2023-03-05T21:44:50.862Z,9.31
2023-03-05T21:46:55.012Z,9.29
2023-03-05T21:48:57.996Z,9.30
2023-03-05T21:51:00.987Z,9.27
2023-03-05T21:53:03.967Z,9.28
2023-03-05T21:55:07.706Z,9.29
2023-03-05T21:57:12.058Z,9.26
2023-03-05T21:59:14.960Z,9.25
2023-03-05T22:01:20.860Z,9.24
2023-03-05T22:03:25.544Z,9.25
2023-03-05T22:05:28.608Z,9.27
2023-03-05T22:07:31.612Z,9.26
